METAR Formatted Surface Weather Observation
Issued by NWS

Home | Current Version | Previous Version | Text Only | Print | Product List | Glossary On
Versions: 1 2 3 4 5 6 7 8 9 10 11 12 13 14 15 16 17 18 19 20 21 22
000
SAUS45 KTWC 251957 COR
MTRSAD
METAR KSAD 251951Z AUTO 30017G23KT 10SM CLR 34/M10 A2976 RMK AO2 PK
WND 31026/1941 SLP013 T03441100



USA.gov is the U.S. government's official web portal to all federal, state and local government web resources and services.